createdAt,value
2018-12-31T00:00:54.363Z,6.62
2018-12-31T00:03:22.932Z,6.25
2018-12-31T00:05:53.386Z,6.10
2018-12-31T00:08:21.729Z,6.10
2018-12-31T00:10:50.321Z,7.40
2018-12-31T00:13:18.879Z,5.85
2018-12-31T00:15:47.467Z,6.85
2018-12-31T00:18:16.027Z,5.87
2018-12-31T00:20:44.615Z,6.00
2018-12-31T00:23:13.174Z,6.62
2018-12-31T00:25:41.759Z,7.85
2018-12-31T00:28:10.324Z,7.80
2018-12-31T00:30:38.912Z,7.60
2018-12-31T00:33:07.475Z,6.83
2018-12-31T00:35:36.063Z,7.00
2018-12-31T00:38:04.631Z,6.15
2018-12-31T00:40:33.210Z,7.53
2018-12-31T00:43:01.775Z,6.35
2018-12-31T00:45:30.359Z,6.55
2018-12-31T00:47:58.915Z,5.78
2018-12-31T00:50:27.503Z,6.10
2018-12-31T00:52:56.070Z,5.95
2018-12-31T00:55:24.658Z,6.37
2018-12-31T00:57:53.218Z,5.60
2018-12-31T01:00:21.803Z,6.55
2018-12-31T01:02:50.374Z,7.62
2018-12-31T01:05:18.955Z,6.25
2018-12-31T01:07:47.520Z,7.03
2018-12-31T01:10:16.103Z,7.22
2018-12-31T01:12:44.667Z,6.60
2018-12-31T01:15:13.250Z,6.70
2018-12-31T01:17:41.815Z,5.53
2018-12-31T01:20:10.399Z,6.42
2018-12-31T01:22:38.967Z,6.50
2018-12-31T01:25:07.561Z,6.40
2018-12-31T01:27:36.125Z,5.97
2018-12-31T01:30:05.648Z,7.30
2018-12-31T01:32:34.210Z,6.83
2018-12-31T01:35:02.801Z,6.70
2018-12-31T01:37:31.356Z,7.03
2018-12-31T01:39:59.933Z,7.45
2018-12-31T01:42:28.496Z,6.65
2018-12-31T01:44:57.079Z,7.10
2018-12-31T01:47:25.645Z,6.45
2018-12-31T01:49:54.232Z,6.33
2018-12-31T01:52:22.790Z,8.00
2018-12-31T01:54:51.374Z,7.00
2018-12-31T01:57:19.935Z,7.90
2018-12-31T01:59:48.514Z,7.33
2018-12-31T02:02:17.075Z,6.90
2018-12-31T02:04:45.665Z,7.03
2018-12-31T02:07:14.229Z,7.85
2018-12-31T02:09:42.821Z,6.95
2018-12-31T02:12:11.378Z,7.28
2018-12-31T02:14:39.962Z,6.53
2018-12-31T02:17:08.532Z,8.40
2018-12-31T02:19:37.104Z,8.08
2018-12-31T02:22:05.689Z,8.45
2018-12-31T02:24:34.251Z,7.60
2018-12-31T02:27:02.838Z,6.37
2018-12-31T02:29:31.399Z,7.30
2018-12-31T02:31:59.987Z,6.62
2018-12-31T02:34:28.557Z,6.15
2018-12-31T02:36:57.144Z,8.48
2018-12-31T02:39:25.711Z,7.28
2018-12-31T02:41:54.297Z,7.30
2018-12-31T02:44:22.864Z,7.30
2018-12-31T02:46:51.438Z,8.38
2018-12-31T02:49:19.998Z,7.95
2018-12-31T02:51:48.591Z,7.72
2018-12-31T02:54:17.152Z,7.90
2018-12-31T02:56:45.739Z,7.87
2018-12-31T02:59:14.303Z,9.13
2018-12-31T03:01:42.974Z,7.20
2018-12-31T03:04:11.522Z,8.13
2018-12-31T03:06:40.111Z,8.23
2018-12-31T03:09:08.672Z,6.83
2018-12-31T03:11:37.254Z,8.03
2018-12-31T03:14:05.822Z,6.78
2018-12-31T03:16:34.408Z,8.05
2018-12-31T03:19:02.976Z,7.37
2018-12-31T03:21:31.562Z,7.60
2018-12-31T03:24:00.119Z,7.28
2018-12-31T03:26:28.704Z,6.95
2018-12-31T03:28:57.276Z,7.05
2018-12-31T03:31:25.877Z,6.92
2018-12-31T03:33:54.440Z,7.60
2018-12-31T03:36:23.024Z,8.05
2018-12-31T03:38:51.592Z,7.70
2018-12-31T03:41:20.175Z,8.60
2018-12-31T03:43:48.730Z,8.20
2018-12-31T03:46:17.310Z,9.23
2018-12-31T03:48:45.884Z,8.10
2018-12-31T03:51:14.464Z,7.72
2018-12-31T03:53:43.032Z,8.55
2018-12-31T03:56:11.661Z,8.75
2018-12-31T03:58:40.195Z,10.18
2018-12-31T04:01:08.767Z,8.73
2018-12-31T04:03:37.331Z,8.15
2018-12-31T04:06:05.915Z,10.68
2018-12-31T04:08:34.480Z,10.82
2018-12-31T04:11:03.065Z,9.53
2018-12-31T04:13:31.636Z,10.93
2018-12-31T04:16:00.229Z,11.12
2018-12-31T04:18:28.787Z,9.98
2018-12-31T04:20:57.365Z,10.45
2018-12-31T04:23:25.934Z,10.80
2018-12-31T04:25:54.528Z,12.50
2018-12-31T04:28:23.092Z,12.68
2018-12-31T04:30:51.694Z,12.68
2018-12-31T04:33:20.285Z,12.20
2018-12-31T04:35:48.877Z,12.98
2018-12-31T04:38:17.440Z,13.62
2018-12-31T04:40:46.028Z,14.00
2018-12-31T04:43:14.595Z,14.63
2018-12-31T04:45:43.158Z,13.40
2018-12-31T04:48:11.755Z,15.05
2018-12-31T04:50:40.319Z,16.82
2018-12-31T04:53:08.911Z,14.80
2018-12-31T04:55:44.367Z,14.15
2018-12-31T04:58:07.720Z,17.25
2018-12-31T05:00:36.288Z,14.58
2018-12-31T05:03:04.888Z,17.42
2018-12-31T05:05:33.457Z,16.85
2018-12-31T05:08:02.044Z,17.07
2018-12-31T05:10:30.611Z,17.15
2018-12-31T05:12:59.196Z,16.93
2018-12-31T05:15:27.763Z,16.00
2018-12-31T05:17:56.355Z,18.02
2018-12-31T05:20:24.924Z,16.95
2018-12-31T05:22:53.511Z,15.60
2018-12-31T05:25:22.073Z,20.00
2018-12-31T05:27:50.659Z,18.25
2018-12-31T05:30:19.235Z,18.70
2018-12-31T05:32:47.824Z,17.05
2018-12-31T05:35:16.386Z,17.05
2018-12-31T05:37:44.976Z,16.40
2018-12-31T05:40:13.547Z,15.90
2018-12-31T05:42:42.135Z,14.80
2018-12-31T05:45:10.694Z,16.57
2018-12-31T05:47:39.294Z,16.35
2018-12-31T05:50:07.867Z,16.55
2018-12-31T05:52:36.447Z,16.87
2018-12-31T05:55:05.096Z,18.02
2018-12-31T05:57:33.685Z,17.27
2018-12-31T06:00:02.257Z,17.10
2018-12-31T06:02:30.838Z,17.70
2018-12-31T06:04:59.405Z,18.70
2018-12-31T06:07:27.990Z,17.55
2018-12-31T06:09:56.554Z,21.17
2018-12-31T06:12:25.148Z,20.02
2018-12-31T06:14:53.719Z,22.20
2018-12-31T06:17:22.303Z,22.87
2018-12-31T06:19:50.875Z,22.25
2018-12-31T06:22:19.467Z,21.65
2018-12-31T06:24:48.036Z,22.98
2018-12-31T06:27:16.619Z,23.05
2018-12-31T06:29:45.189Z,23.42
2018-12-31T06:32:13.776Z,21.40
2018-12-31T06:34:42.347Z,22.40
2018-12-31T06:37:10.937Z,22.90
2018-12-31T06:39:39.499Z,21.95
2018-12-31T06:42:08.082Z,24.47
2018-12-31T06:44:36.647Z,23.05
2018-12-31T06:47:05.240Z,23.35
2018-12-31T06:49:33.799Z,22.27
2018-12-31T06:52:02.387Z,26.10
2018-12-31T06:54:30.970Z,25.65
2018-12-31T06:56:59.550Z,26.70
2018-12-31T06:59:28.124Z,21.80
2018-12-31T07:01:56.716Z,22.98
2018-12-31T07:04:25.279Z,24.30
2018-12-31T07:06:53.863Z,23.60
2018-12-31T07:09:22.433Z,21.85
2018-12-31T07:11:50.991Z,23.55
2018-12-31T07:14:19.574Z,23.30
2018-12-31T07:16:48.148Z,23.62
2018-12-31T07:19:16.730Z,23.12
2018-12-31T07:21:45.308Z,22.25
2018-12-31T07:24:13.891Z,23.07
2018-12-31T07:26:42.459Z,23.92
2018-12-31T07:29:11.038Z,22.93
2018-12-31T07:31:39.607Z,25.92
2018-12-31T07:34:08.204Z,26.00
2018-12-31T07:36:36.774Z,26.30
2018-12-31T07:39:06.595Z,25.72
2018-12-31T07:41:35.158Z,25.05
2018-12-31T07:44:03.833Z,23.85
2018-12-31T07:46:32.400Z,26.33
2018-12-31T07:49:00.985Z,25.72
2018-12-31T07:51:29.559Z,25.57
2018-12-31T07:53:58.150Z,26.15
2018-12-31T07:56:26.720Z,23.07
2018-12-31T07:58:55.306Z,24.75
2018-12-31T08:01:23.869Z,23.42
2018-12-31T08:03:52.460Z,24.32
2018-12-31T08:06:21.033Z,24.90
2018-12-31T08:08:49.616Z,24.98
2018-12-31T08:11:18.184Z,26.33
2018-12-31T08:13:46.766Z,24.12
2018-12-31T08:16:15.335Z,25.88
2018-12-31T08:18:43.919Z,25.30
2018-12-31T08:21:12.488Z,27.30
2018-12-31T08:23:41.083Z,28.62
2018-12-31T08:26:09.657Z,26.27
2018-12-31T08:28:38.252Z,28.27
2018-12-31T08:31:06.811Z,26.50
2018-12-31T08:33:35.403Z,26.77
2018-12-31T08:36:03.976Z,28.30
2018-12-31T08:38:32.560Z,28.40
2018-12-31T08:41:01.127Z,30.65
2018-12-31T08:43:29.719Z,32.10
2018-12-31T08:45:58.283Z,36.35
2018-12-31T08:48:26.879Z,34.40
2018-12-31T08:50:55.455Z,33.42
2018-12-31T08:53:24.051Z,30.90
2018-12-31T08:55:52.619Z,30.27
2018-12-31T08:58:21.220Z,30.80
2018-12-31T09:00:49.793Z,29.98
2018-12-31T09:03:18.383Z,33.92
2018-12-31T09:05:46.947Z,28.40
2018-12-31T09:08:15.541Z,31.17
2018-12-31T09:10:44.102Z,34.10
2018-12-31T09:13:12.701Z,32.15
2018-12-31T09:15:41.264Z,32.65
2018-12-31T09:18:09.851Z,30.30
2018-12-31T09:20:38.416Z,28.45
2018-12-31T09:23:06.998Z,26.62
2018-12-31T09:25:35.568Z,26.33
2018-12-31T09:28:04.151Z,25.25
2018-12-31T09:30:32.757Z,25.62
2018-12-31T09:33:01.338Z,26.25
2018-12-31T09:35:29.910Z,27.93
2018-12-31T09:37:58.477Z,28.00
2018-12-31T09:40:27.054Z,28.25
2018-12-31T09:42:55.635Z,26.10
2018-12-31T09:45:24.223Z,26.52
2018-12-31T09:47:52.788Z,27.42
2018-12-31T09:50:21.378Z,28.73
2018-12-31T09:52:49.947Z,29.70
2018-12-31T09:55:18.547Z,30.57
2018-12-31T09:57:47.111Z,31.05
2018-12-31T10:00:17.347Z,31.90
2018-12-31T10:02:45.923Z,33.92
2018-12-31T10:05:14.537Z,33.73
2018-12-31T10:07:43.104Z,32.90
2018-12-31T10:10:11.695Z,32.80
2018-12-31T10:12:40.266Z,35.03
2018-12-31T10:15:08.932Z,33.75
2018-12-31T10:17:37.519Z,33.18
2018-12-31T10:20:06.593Z,33.05
2018-12-31T10:22:35.164Z,31.82
2018-12-31T10:25:03.827Z,36.08
2018-12-31T10:27:32.392Z,34.40
2018-12-31T10:30:00.983Z,33.20
2018-12-31T10:32:29.547Z,34.23
2018-12-31T10:34:58.144Z,35.00
2018-12-31T10:37:26.715Z,36.73
2018-12-31T10:39:55.308Z,37.95
2018-12-31T10:42:23.879Z,36.50
2018-12-31T10:44:52.475Z,34.25
2018-12-31T10:47:21.047Z,34.90
2018-12-31T10:49:49.648Z,33.23
2018-12-31T10:52:18.219Z,35.08
2018-12-31T10:54:46.811Z,33.75
2018-12-31T10:57:15.378Z,41.02
2018-12-31T10:59:43.975Z,37.48
2018-12-31T11:02:12.548Z,36.93
2018-12-31T11:04:41.142Z,38.78
2018-12-31T11:07:09.878Z,42.53
2018-12-31T11:09:38.467Z,40.15
2018-12-31T11:12:07.038Z,35.25
2018-12-31T11:14:35.632Z,40.38
2018-12-31T11:17:04.204Z,37.95
2018-12-31T11:19:33.550Z,38.83
2018-12-31T11:22:02.171Z,36.53
2018-12-31T11:24:30.763Z,35.70
2018-12-31T11:26:59.335Z,37.40
2018-12-31T11:29:27.928Z,38.42
2018-12-31T11:31:56.503Z,37.90
2018-12-31T11:34:25.078Z,38.45
2018-12-31T11:36:53.655Z,37.28
2018-12-31T11:39:22.247Z,36.20
2018-12-31T11:41:50.810Z,35.38
2018-12-31T11:44:19.407Z,36.93
2018-12-31T11:46:47.971Z,34.40
2018-12-31T11:49:16.567Z,35.23
2018-12-31T11:51:45.132Z,34.00
2018-12-31T11:54:13.722Z,37.67
2018-12-31T11:56:42.294Z,37.90
2018-12-31T11:59:10.891Z,37.53
2018-12-31T12:01:39.462Z,36.15
2018-12-31T12:04:08.027Z,34.63
2018-12-31T12:06:36.617Z,34.78
2018-12-31T12:09:06.436Z,34.67
2018-12-31T12:11:35.027Z,33.38
2018-12-31T12:14:03.674Z,31.97
2018-12-31T12:16:32.269Z,33.42
2018-12-31T12:19:00.835Z,32.78
2018-12-31T12:21:29.422Z,34.38
2018-12-31T12:23:57.997Z,34.98
2018-12-31T12:26:26.598Z,34.83
2018-12-31T12:28:57.611Z,34.55
2018-12-31T12:31:26.198Z,36.08
2018-12-31T12:33:54.767Z,36.23
2018-12-31T12:36:23.364Z,34.03
2018-12-31T12:38:51.930Z,35.00
2018-12-31T12:41:20.531Z,37.60
2018-12-31T12:43:49.106Z,37.03
2018-12-31T12:46:17.702Z,40.83
2018-12-31T12:48:46.272Z,44.70
2018-12-31T12:51:14.859Z,39.85
2018-12-31T12:53:43.423Z,40.98
2018-12-31T12:56:12.020Z,40.65
2018-12-31T12:58:40.668Z,37.75
2018-12-31T13:01:09.259Z,37.70
2018-12-31T13:03:37.826Z,35.23
2018-12-31T13:06:06.424Z,36.85
2018-12-31T13:08:35.003Z,36.98
2018-12-31T13:11:03.686Z,38.08
2018-12-31T13:13:32.258Z,35.08
2018-12-31T13:16:00.847Z,33.53
2018-12-31T13:18:29.419Z,31.90
2018-12-31T13:20:58.320Z,34.08
2018-12-31T13:23:27.231Z,34.70
2018-12-31T13:25:55.867Z,35.52
2018-12-31T13:28:25.250Z,37.08
2018-12-31T13:30:53.882Z,36.33
2018-12-31T13:33:22.981Z,34.25
2018-12-31T13:35:51.830Z,33.38
2018-12-31T13:38:20.399Z,34.35
2018-12-31T13:40:48.999Z,36.08
2018-12-31T13:43:17.571Z,36.60
2018-12-31T13:45:46.161Z,36.58
2018-12-31T13:48:15.035Z,37.45
2018-12-31T13:50:43.634Z,35.90
2018-12-31T13:53:12.198Z,37.63
2018-12-31T13:55:40.801Z,37.13
2018-12-31T13:58:09.363Z,35.85
2018-12-31T14:00:38.998Z,35.58
2018-12-31T14:03:07.568Z,38.55
2018-12-31T14:05:36.154Z,33.67
2018-12-31T14:08:04.718Z,33.75
2018-12-31T14:10:33.310Z,34.63
2018-12-31T14:13:02.279Z,36.60
2018-12-31T14:15:30.872Z,37.60
2018-12-31T14:17:59.447Z,37.17
2018-12-31T14:20:28.052Z,35.40
2018-12-31T14:22:56.606Z,34.10
2018-12-31T14:25:25.494Z,37.28
2018-12-31T14:27:54.070Z,38.55
2018-12-31T14:30:22.668Z,36.60
2018-12-31T14:32:51.239Z,37.67
2018-12-31T14:35:19.811Z,37.08
2018-12-31T14:37:48.399Z,35.70
2018-12-31T14:40:16.972Z,37.65
2018-12-31T14:42:45.559Z,40.17
2018-12-31T14:45:14.136Z,36.13
2018-12-31T14:47:42.728Z,36.28
2018-12-31T14:50:11.290Z,35.13
2018-12-31T14:52:39.879Z,35.20
2018-12-31T14:55:08.456Z,34.33
2018-12-31T14:57:37.078Z,34.90
2018-12-31T15:00:08.714Z,34.33
2018-12-31T15:02:37.308Z,35.17
2018-12-31T15:05:06.319Z,36.03
2018-12-31T15:07:34.907Z,36.58
2018-12-31T15:10:03.548Z,37.83
2018-12-31T15:12:32.139Z,39.23
2018-12-31T15:15:00.711Z,34.98
2018-12-31T15:17:29.317Z,34.95
2018-12-31T15:19:57.887Z,34.05
2018-12-31T15:22:29.195Z,33.70
2018-12-31T15:24:56.687Z,33.18
2018-12-31T15:27:25.275Z,32.88
2018-12-31T15:29:53.843Z,33.73
2018-12-31T15:32:22.430Z,35.85
2018-12-31T15:34:50.995Z,40.17
2018-12-31T15:37:19.588Z,40.12
2018-12-31T15:39:48.161Z,41.83
2018-12-31T15:42:16.762Z,39.75
2018-12-31T15:44:45.318Z,38.63
2018-12-31T15:47:13.912Z,36.65
2018-12-31T15:49:42.483Z,37.45
2018-12-31T15:52:11.083Z,41.40
2018-12-31T15:54:39.854Z,55.90
2018-12-31T15:57:08.447Z,54.67
2018-12-31T15:59:37.025Z,49.83
2018-12-31T16:02:05.620Z,55.58
2018-12-31T16:04:34.192Z,46.73
2018-12-31T16:07:03.085Z,50.10
2018-12-31T16:09:31.712Z,47.27
2018-12-31T16:12:00.303Z,50.38
2018-12-31T16:14:28.933Z,46.23
2018-12-31T16:16:57.527Z,47.40
2018-12-31T16:19:26.099Z,54.23
2018-12-31T16:21:54.694Z,59.58
2018-12-31T16:24:23.267Z,56.37
2018-12-31T16:26:51.854Z,57.33
2018-12-31T16:29:20.419Z,63.48
2018-12-31T16:31:49.011Z,62.05
2018-12-31T16:34:17.592Z,67.50
2018-12-31T16:36:46.215Z,71.60
2018-12-31T16:39:14.745Z,97.45
2018-12-31T16:41:43.338Z,66.87
2018-12-31T16:44:11.935Z,70.37
2018-12-31T16:46:40.710Z,56.70
2018-12-31T16:49:09.287Z,61.40
2018-12-31T16:51:37.883Z,84.00
2018-12-31T16:54:06.456Z,69.35
2018-12-31T16:56:35.044Z,65.05
2018-12-31T16:59:03.815Z,74.12
2018-12-31T17:01:32.407Z,87.42
2018-12-31T17:04:00.979Z,58.25
2018-12-31T17:06:29.554Z,61.85
2018-12-31T17:08:58.142Z,68.52
2018-12-31T17:11:26.721Z,59.65
2018-12-31T17:13:55.309Z,51.30
2018-12-31T17:16:23.873Z,49.65
2018-12-31T17:18:52.467Z,45.88
2018-12-31T17:21:21.035Z,46.23
2018-12-31T17:23:49.631Z,55.05
2018-12-31T17:26:18.207Z,82.50
2018-12-31T17:28:46.828Z,167.00
2018-12-31T17:31:15.379Z,135.82
2018-12-31T17:33:43.975Z,109.40
2018-12-31T17:36:12.547Z,49.10
2018-12-31T17:38:41.334Z,53.20
2018-12-31T17:41:09.899Z,54.18
2018-12-31T17:43:38.486Z,51.90
2018-12-31T17:46:07.058Z,49.88
2018-12-31T17:48:35.653Z,46.65
2018-12-31T17:51:04.216Z,45.70
2018-12-31T17:53:32.834Z,46.95
2018-12-31T17:56:01.407Z,44.15
2018-12-31T17:58:29.999Z,47.13
2018-12-31T18:00:58.571Z,47.25
2018-12-31T18:03:27.167Z,40.60
2018-12-31T18:05:55.747Z,35.88
2018-12-31T18:08:24.335Z,40.58
2018-12-31T18:10:52.902Z,44.48
2018-12-31T18:13:21.492Z,41.73
2018-12-31T18:15:50.067Z,42.35
2018-12-31T18:18:18.653Z,38.73
2018-12-31T18:20:47.220Z,38.53
2018-12-31T18:23:15.812Z,38.25
2018-12-31T18:25:44.384Z,40.58
2018-12-31T18:28:12.970Z,39.53
2018-12-31T18:30:41.839Z,42.13
2018-12-31T18:33:10.436Z,44.05
2018-12-31T18:35:39.004Z,60.88
2018-12-31T18:38:07.594Z,75.37
2018-12-31T18:40:36.162Z,62.17
2018-12-31T18:43:05.157Z,61.02
2018-12-31T18:45:33.726Z,52.27
2018-12-31T18:48:04.348Z,49.35
2018-12-31T18:50:32.907Z,51.40
2018-12-31T18:53:01.494Z,47.80
2018-12-31T18:55:30.058Z,52.85
2018-12-31T18:57:58.656Z,48.52
2018-12-31T19:00:27.223Z,47.98
2018-12-31T19:02:55.814Z,49.08
2018-12-31T19:05:24.388Z,53.17
2018-12-31T19:07:52.983Z,49.98
2018-12-31T19:10:21.544Z,48.78
2018-12-31T19:12:50.139Z,50.95
2018-12-31T19:15:18.711Z,49.55
2018-12-31T19:17:47.303Z,53.08
2018-12-31T19:20:15.873Z,60.80
2018-12-31T19:22:44.667Z,54.42
2018-12-31T19:25:13.228Z,60.10
2018-12-31T19:27:41.818Z,71.53
2018-12-31T19:30:10.388Z,66.50
2018-12-31T19:32:38.980Z,57.17
2018-12-31T19:35:07.851Z,52.17
2018-12-31T19:37:36.424Z,48.80
2018-12-31T19:40:06.155Z,50.30
2018-12-31T19:42:34.726Z,49.18
2018-12-31T19:45:03.323Z,54.50
2018-12-31T19:47:31.897Z,49.67
2018-12-31T19:50:00.486Z,51.00
2018-12-31T19:52:29.051Z,52.70
2018-12-31T19:54:58.489Z,52.70
2018-12-31T19:57:27.568Z,54.75
2018-12-31T19:59:56.161Z,59.38
2018-12-31T20:02:24.727Z,64.65
2018-12-31T20:04:53.323Z,65.70
2018-12-31T20:07:21.890Z,65.42
2018-12-31T20:09:50.479Z,69.47
2018-12-31T20:12:19.044Z,67.55
2018-12-31T20:14:47.935Z,72.45
2018-12-31T20:17:16.494Z,63.10
2018-12-31T20:19:45.088Z,69.80
2018-12-31T20:22:13.659Z,69.03
2018-12-31T20:24:42.248Z,83.70
2018-12-31T20:27:10.823Z,108.37
2018-12-31T20:29:39.419Z,135.80
2018-12-31T20:32:07.996Z,150.80
2018-12-31T20:34:36.594Z,146.07
2018-12-31T20:37:05.163Z,134.80
2018-12-31T20:39:33.759Z,106.90
2018-12-31T20:42:02.326Z,95.95
2018-12-31T20:44:30.919Z,93.70
2018-12-31T20:46:59.486Z,78.55
2018-12-31T20:49:28.338Z,102.07
2018-12-31T20:51:56.959Z,112.60
2018-12-31T20:54:25.708Z,86.08
2018-12-31T20:56:54.554Z,71.90
2018-12-31T20:59:23.151Z,73.70
2018-12-31T21:01:53.611Z,71.12
2018-12-31T21:04:21.951Z,61.88
2018-12-31T21:06:50.523Z,66.33
2018-12-31T21:09:19.122Z,63.68
2018-12-31T21:11:47.687Z,60.78
2018-12-31T21:14:16.270Z,58.08
2018-12-31T21:16:44.844Z,54.60
2018-12-31T21:19:13.435Z,58.68
2018-12-31T21:21:42.015Z,59.85
2018-12-31T21:24:10.596Z,54.13
2018-12-31T21:26:39.175Z,999.90
2018-12-31T21:29:07.771Z,999.90
2018-12-31T21:31:36.341Z,217.90
2018-12-31T21:34:04.944Z,477.85
2018-12-31T21:36:33.815Z,108.83
2018-12-31T21:39:02.412Z,77.62
2018-12-31T21:41:30.970Z,73.40
2018-12-31T21:43:59.563Z,67.60
2018-12-31T21:46:28.127Z,71.80
2018-12-31T21:48:56.724Z,71.92
2018-12-31T21:51:25.296Z,64.55
2018-12-31T21:53:53.891Z,70.17
2018-12-31T21:56:22.468Z,68.47
2018-12-31T21:58:51.937Z,64.70
2018-12-31T22:01:20.522Z,67.12
2018-12-31T22:03:49.219Z,65.85
2018-12-31T22:06:17.787Z,69.25
2018-12-31T22:08:46.345Z,68.37
2018-12-31T22:11:14.940Z,69.22
2018-12-31T22:13:43.506Z,72.78
2018-12-31T22:16:12.095Z,80.07
2018-12-31T22:18:40.665Z,86.72
2018-12-31T22:21:09.260Z,86.05
2018-12-31T22:23:37.830Z,90.60
2018-12-31T22:26:06.420Z,97.60
2018-12-31T22:28:34.986Z,93.05
2018-12-31T22:31:03.580Z,84.92
2018-12-31T22:33:32.147Z,78.57
2018-12-31T22:36:00.746Z,81.15
2018-12-31T22:38:29.316Z,98.45
2018-12-31T22:40:57.913Z,98.27
2018-12-31T22:43:26.759Z,89.58
2018-12-31T22:45:55.360Z,72.05
2018-12-31T22:48:23.931Z,61.05
2018-12-31T22:50:52.523Z,55.40
2018-12-31T22:53:21.091Z,60.73
2018-12-31T22:55:49.982Z,58.33
2018-12-31T22:58:18.551Z,57.23
2018-12-31T23:00:47.140Z,54.90
2018-12-31T23:03:15.715Z,50.25
2018-12-31T23:05:44.310Z,120.45
2018-12-31T23:08:12.879Z,96.65
2018-12-31T23:10:41.481Z,209.65
2018-12-31T23:13:10.055Z,307.65
2018-12-31T23:15:38.653Z,326.75
2018-12-31T23:18:07.223Z,462.40
2018-12-31T23:20:35.819Z,475.07
2018-12-31T23:23:04.398Z,483.18
2018-12-31T23:25:32.994Z,534.92
2018-12-31T23:28:01.569Z,575.12
2018-12-31T23:30:30.165Z,395.93
2018-12-31T23:32:58.737Z,352.82
2018-12-31T23:35:27.626Z,381.23
2018-12-31T23:37:56.208Z,361.00
2018-12-31T23:40:24.795Z,325.90
2018-12-31T23:42:53.367Z,306.27
2018-12-31T23:45:21.964Z,283.57
2018-12-31T23:47:50.534Z,262.95
2018-12-31T23:50:19.131Z,206.95
2018-12-31T23:52:47.703Z,224.75
2018-12-31T23:55:16.297Z,197.55
2018-12-31T23:57:44.867Z,159.80
